createdAt,value
2019-01-18T00:00:36.422Z,40.60
2019-01-18T00:03:04.770Z,40.60
2019-01-18T00:05:33.139Z,40.60
2019-01-18T00:08:01.529Z,40.60
2019-01-18T00:10:29.910Z,40.60
2019-01-18T00:12:58.273Z,40.60
2019-01-18T00:15:27.015Z,40.60
2019-01-18T00:17:55.457Z,40.60
2019-01-18T00:20:23.850Z,40.60
2019-01-18T00:22:52.272Z,40.60
2019-01-18T00:25:20.558Z,40.60
2019-01-18T00:27:48.871Z,40.70
2019-01-18T00:30:21.979Z,40.60
2019-01-18T00:32:50.258Z,40.70
2019-01-18T00:35:18.625Z,40.60
2019-01-18T00:37:46.913Z,40.60
2019-01-18T00:40:22.049Z,40.60
2019-01-18T00:42:50.446Z,40.10
2019-01-18T00:45:20.261Z,40.70
2019-01-18T00:47:48.630Z,40.70
2019-01-18T00:50:20.886Z,40.80
2019-01-18T00:52:49.245Z,40.60
2019-01-18T00:55:17.630Z,40.70
2019-01-18T00:57:45.998Z,40.60
2019-01-18T01:00:22.858Z,40.60
2019-01-18T01:02:51.145Z,40.20
2019-01-18T01:05:19.772Z,40.50
2019-01-18T01:07:48.171Z,40.80
2019-01-18T01:10:16.540Z,40.60
2019-01-18T01:12:44.965Z,40.60
2019-01-18T01:15:16.544Z,40.70
2019-01-18T01:17:45.034Z,40.20
2019-01-18T01:20:15.802Z,40.70
2019-01-18T01:22:44.326Z,40.80
2019-01-18T01:25:12.682Z,40.70
2019-01-18T01:27:41.406Z,40.80
2019-01-18T01:30:13.022Z,40.70
2019-01-18T01:32:41.312Z,40.70
2019-01-18T01:35:09.663Z,40.70
2019-01-18T01:37:37.963Z,40.70
2019-01-18T01:40:14.923Z,40.70
2019-01-18T01:42:43.222Z,40.70
2019-01-18T01:45:13.198Z,40.70
2019-01-18T01:47:41.506Z,40.70
2019-01-18T01:50:12.925Z,40.70
2019-01-18T01:52:41.295Z,40.70
2019-01-18T01:55:09.719Z,40.70
2019-01-18T01:57:38.027Z,40.70
2019-01-18T02:00:09.642Z,40.60
2019-01-18T02:02:37.982Z,40.10
2019-01-18T02:05:06.372Z,40.70
2019-01-18T02:07:34.750Z,40.70
2019-01-18T02:10:03.193Z,40.70
2019-01-18T02:12:31.560Z,41.30
2019-01-18T02:14:59.864Z,40.70
2019-01-18T02:17:28.639Z,40.70
2019-01-18T02:19:56.959Z,40.70
2019-01-18T02:22:25.315Z,40.70
2019-01-18T02:24:53.593Z,40.60
2019-01-18T02:27:21.913Z,40.70
2019-01-18T02:29:56.365Z,40.70
2019-01-18T02:32:20.267Z,40.60
2019-01-18T02:34:48.660Z,40.70
2019-01-18T02:37:17.024Z,40.60
2019-01-18T02:39:45.380Z,40.60
2019-01-18T02:42:13.682Z,40.60
2019-01-18T02:44:41.968Z,40.60
2019-01-18T02:47:10.256Z,40.60
2019-01-18T02:49:38.550Z,40.60
2019-01-18T02:52:06.830Z,40.60
2019-01-18T02:54:35.110Z,40.70
2019-01-18T02:57:03.410Z,40.70
2019-01-18T02:59:31.754Z,40.60
2019-01-18T03:02:00.040Z,40.60
2019-01-18T03:04:28.349Z,41.30
2019-01-18T03:06:56.694Z,40.60
2019-01-18T03:09:25.006Z,40.50
2019-01-18T03:11:53.491Z,40.50
2019-01-18T03:14:21.851Z,40.60
2019-01-18T03:16:50.199Z,40.50
2019-01-18T03:19:18.495Z,40.50
2019-01-18T03:21:46.884Z,40.50
2019-01-18T03:24:15.270Z,40.60
2019-01-18T03:26:43.682Z,40.60
2019-01-18T03:29:11.990Z,40.60
2019-01-18T03:31:40.273Z,40.60
2019-01-18T03:34:08.572Z,40.50
2019-01-18T03:36:36.926Z,40.50
2019-01-18T03:39:08.719Z,40.60
2019-01-18T03:41:37.635Z,40.50
2019-01-18T03:44:05.913Z,40.50
2019-01-18T03:46:34.202Z,40.50
2019-01-18T03:49:02.502Z,40.50
2019-01-18T03:51:30.781Z,40.50
2019-01-18T03:53:59.083Z,40.50
2019-01-18T03:56:27.467Z,40.50
2019-01-18T03:58:55.742Z,40.50
2019-01-18T04:01:24.023Z,40.50
2019-01-18T04:03:52.342Z,40.50
2019-01-18T04:06:20.695Z,40.50
2019-01-18T04:08:48.989Z,40.50
2019-01-18T04:11:17.371Z,40.50
2019-01-18T04:13:45.747Z,40.50
2019-01-18T04:16:14.106Z,40.50
2019-01-18T04:18:42.402Z,40.50
2019-01-18T04:21:10.711Z,40.50
2019-01-18T04:23:39.081Z,40.50
2019-01-18T04:26:07.400Z,40.50
2019-01-18T04:28:35.759Z,40.50
2019-01-18T04:31:04.107Z,39.80
2019-01-18T04:33:32.474Z,40.50
2019-01-18T04:36:00.754Z,40.50
2019-01-18T04:38:29.050Z,40.50
2019-01-18T04:40:57.435Z,40.50
2019-01-18T04:43:25.743Z,40.50
2019-01-18T04:45:54.098Z,40.40
2019-01-18T04:48:22.399Z,40.40
2019-01-18T04:50:50.746Z,40.40
2019-01-18T04:53:19.027Z,40.40
2019-01-18T04:55:47.392Z,40.40
2019-01-18T04:58:15.787Z,40.40
2019-01-18T05:00:44.100Z,40.50
2019-01-18T05:03:12.541Z,40.50
2019-01-18T05:05:40.914Z,40.50
2019-01-18T05:08:09.930Z,40.50
2019-01-18T05:10:38.248Z,40.40
2019-01-18T05:13:06.611Z,40.40
2019-01-18T05:15:34.910Z,40.90
2019-01-18T05:18:03.287Z,40.50
2019-01-18T05:20:31.682Z,41.10
2019-01-18T05:22:59.967Z,40.40
2019-01-18T05:25:28.339Z,40.40
2019-01-18T05:27:56.689Z,40.40
2019-01-18T05:30:29.328Z,40.40
2019-01-18T05:32:57.652Z,39.80
2019-01-18T05:35:26.003Z,40.40
2019-01-18T05:37:54.308Z,40.50
2019-01-18T05:40:23.243Z,40.50
2019-01-18T05:42:51.545Z,40.40
2019-01-18T05:45:23.377Z,40.50
2019-01-18T05:47:51.995Z,39.80
2019-01-18T05:50:22.310Z,40.50
2019-01-18T05:52:51.440Z,40.40
2019-01-18T05:55:19.794Z,40.40
2019-01-18T05:57:48.150Z,40.40
2019-01-18T06:00:24.118Z,40.50
2019-01-18T06:02:52.406Z,39.80
2019-01-18T06:05:21.155Z,40.40
2019-01-18T06:07:49.459Z,40.50
2019-01-18T06:10:17.825Z,40.40
2019-01-18T06:12:46.191Z,40.30
2019-01-18T06:15:14.572Z,40.50
2019-01-18T06:17:42.928Z,40.40
2019-01-18T06:22:40.502Z,39.80
2019-01-18T06:25:08.848Z,40.40
2019-01-18T06:27:37.163Z,40.40
2019-01-18T06:30:11.644Z,40.50
2019-01-18T06:32:39.935Z,39.80
2019-01-18T06:35:08.503Z,40.50
2019-01-18T06:37:36.982Z,40.40
2019-01-18T06:40:14.289Z,40.40
2019-01-18T06:42:42.582Z,39.90
2019-01-18T06:45:13.371Z,40.40
2019-01-18T06:47:41.696Z,39.80
2019-01-18T06:50:12.499Z,40.40
2019-01-18T06:52:40.953Z,39.90
2019-01-18T06:55:10.870Z,40.50
2019-01-18T06:57:39.177Z,40.40
2019-01-18T07:00:13.230Z,40.50
2019-01-18T07:02:41.590Z,39.90
2019-01-18T07:05:09.898Z,40.40
2019-01-18T07:07:38.251Z,40.50
2019-01-18T07:10:09.791Z,40.40
2019-01-18T07:12:38.112Z,40.50
2019-01-18T07:15:09.577Z,40.50
2019-01-18T07:17:37.992Z,40.50
2019-01-18T07:20:09.543Z,40.50
2019-01-18T07:22:37.896Z,40.40
2019-01-18T07:25:09.531Z,40.70
2019-01-18T07:27:37.908Z,39.90
2019-01-18T07:30:09.606Z,40.50
2019-01-18T07:32:37.971Z,40.00
2019-01-18T07:35:08.550Z,40.50
2019-01-18T07:37:36.860Z,39.90
2019-01-18T07:40:07.938Z,40.50
2019-01-18T07:42:36.251Z,39.90
2019-01-18T07:45:07.796Z,40.50
2019-01-18T07:47:36.071Z,40.00
2019-01-18T07:50:06.990Z,40.50
2019-01-18T07:52:35.270Z,39.90
2019-01-18T07:55:03.947Z,40.50
2019-01-18T07:57:32.344Z,40.50
2019-01-18T08:00:00.727Z,40.50
2019-01-18T08:02:29.159Z,40.50
2019-01-18T08:04:57.532Z,40.60
2019-01-18T08:07:25.886Z,40.60
2019-01-18T08:09:54.188Z,40.50
2019-01-18T08:12:22.555Z,40.50
2019-01-18T08:14:51.059Z,40.50
2019-01-18T08:17:19.407Z,40.40
2019-01-18T08:19:47.711Z,40.40
2019-01-18T08:22:16.015Z,40.50
2019-01-18T08:24:44.346Z,40.40
2019-01-18T08:27:12.860Z,40.50
2019-01-18T08:29:41.210Z,40.40
2019-01-18T08:32:09.495Z,40.50
2019-01-18T08:34:37.893Z,40.50
2019-01-18T08:37:06.250Z,40.40
2019-01-18T08:39:34.529Z,40.40
2019-01-18T08:42:02.843Z,40.40
2019-01-18T08:44:31.189Z,40.40
2019-01-18T08:46:59.527Z,40.30
2019-01-18T08:49:27.918Z,40.30
2019-01-18T08:51:56.266Z,40.30
2019-01-18T08:54:24.693Z,40.30
2019-01-18T08:56:53.000Z,40.20
2019-01-18T08:59:21.375Z,40.30
2019-01-18T09:01:49.729Z,40.30
2019-01-18T09:04:18.037Z,40.40
2019-01-18T09:06:46.316Z,39.70
2019-01-18T09:09:14.602Z,40.40
2019-01-18T09:11:42.971Z,40.30
2019-01-18T09:14:11.267Z,40.30
2019-01-18T09:16:39.624Z,40.20
2019-01-18T09:19:07.950Z,40.30
2019-01-18T09:21:36.311Z,40.30
2019-01-18T09:24:04.595Z,40.20
2019-01-18T09:26:32.997Z,40.20
2019-01-18T09:29:01.427Z,40.20
2019-01-18T09:31:29.735Z,40.20
2019-01-18T09:33:58.102Z,40.30
2019-01-18T09:36:26.410Z,40.20
2019-01-18T09:38:54.763Z,40.20
2019-01-18T09:41:23.061Z,40.30
2019-01-18T09:43:51.418Z,40.30
2019-01-18T09:46:19.775Z,41.00
2019-01-18T09:48:48.110Z,40.30
2019-01-18T09:51:16.459Z,40.30
2019-01-18T09:53:44.762Z,40.30
2019-01-18T09:56:13.145Z,40.30
2019-01-18T09:58:41.419Z,40.30
2019-01-18T10:01:09.707Z,40.30
2019-01-18T10:03:38.080Z,40.30
2019-01-18T10:06:06.376Z,40.20
2019-01-18T10:08:34.735Z,40.20
2019-01-18T10:11:03.050Z,40.30
2019-01-18T10:13:32.048Z,40.20
2019-01-18T10:16:00.563Z,40.20
2019-01-18T10:18:28.855Z,40.30
2019-01-18T10:20:57.143Z,40.20
2019-01-18T10:23:25.513Z,40.10
2019-01-18T10:25:53.898Z,40.20
2019-01-18T10:28:22.326Z,40.10
2019-01-18T10:30:50.679Z,40.20
2019-01-18T10:33:18.975Z,40.30
2019-01-18T10:35:47.266Z,40.20
2019-01-18T10:38:15.614Z,40.20
2019-01-18T10:40:43.952Z,40.20
2019-01-18T10:43:12.366Z,40.20
2019-01-18T10:45:40.690Z,40.10
2019-01-18T10:48:09.067Z,40.20
2019-01-18T10:50:37.347Z,40.10
2019-01-18T10:53:05.653Z,40.10
2019-01-18T10:55:34.022Z,40.20
2019-01-18T10:58:02.335Z,40.20
2019-01-18T11:00:33.091Z,40.20
2019-01-18T11:03:01.462Z,40.20
2019-01-18T11:05:29.782Z,40.20
2019-01-18T11:07:58.168Z,40.30
2019-01-18T11:10:26.536Z,40.20
2019-01-18T11:12:54.824Z,40.20
2019-01-18T11:15:28.150Z,40.10
2019-01-18T11:17:56.507Z,40.20
2019-01-18T11:20:27.849Z,40.30
2019-01-18T11:22:57.975Z,40.30
2019-01-18T11:25:31.750Z,40.20
2019-01-18T11:27:56.401Z,40.20
2019-01-18T11:30:24.758Z,40.30
2019-01-18T11:32:53.265Z,40.30
2019-01-18T11:35:21.582Z,40.30
2019-01-18T11:37:50.066Z,40.30
2019-01-18T11:40:22.951Z,40.30
2019-01-18T11:42:51.302Z,40.30
2019-01-18T11:45:19.658Z,40.30
2019-01-18T11:47:47.996Z,40.30
2019-01-18T11:50:26.670Z,40.30
2019-01-18T11:52:54.985Z,40.30
2019-01-18T11:55:23.275Z,40.30
2019-01-18T11:57:51.615Z,40.30
2019-01-18T12:00:25.345Z,40.30
2019-01-18T12:02:53.690Z,40.30
2019-01-18T12:05:21.978Z,40.30
2019-01-18T12:07:50.284Z,40.30
2019-01-18T12:10:26.995Z,40.30
2019-01-18T12:12:55.298Z,40.30
2019-01-18T12:15:24.168Z,40.30
2019-01-18T12:17:52.539Z,40.30
2019-01-18T12:20:29.727Z,40.30
2019-01-18T12:22:58.082Z,40.20
2019-01-18T12:25:26.602Z,40.30
2019-01-18T12:27:54.991Z,40.30
2019-01-18T12:30:28.938Z,40.30
2019-01-18T12:32:57.281Z,40.30
2019-01-18T12:35:25.583Z,40.30
2019-01-18T12:37:53.894Z,40.30
2019-01-18T12:40:22.258Z,40.30
2019-01-18T12:42:50.693Z,40.30
2019-01-18T12:45:20.967Z,40.30
2019-01-18T12:47:49.251Z,40.20
2019-01-18T12:50:29.714Z,40.20
2019-01-18T12:52:58.019Z,40.10
2019-01-18T12:55:26.393Z,40.10
2019-01-18T12:57:54.771Z,40.10
2019-01-18T13:00:24.816Z,40.10
2019-01-18T13:02:53.135Z,40.20
2019-01-18T13:05:24.339Z,40.10
2019-01-18T13:07:52.767Z,40.00
2019-01-18T13:10:21.125Z,40.00
2019-01-18T13:12:49.418Z,40.10
2019-01-18T13:15:33.195Z,40.10
2019-01-18T13:18:01.558Z,40.20
2019-01-18T13:20:29.842Z,40.20
2019-01-18T13:22:58.147Z,40.30
2019-01-18T13:25:26.534Z,40.30
2019-01-18T13:27:54.831Z,40.30
2019-01-18T13:30:23.134Z,40.30
2019-01-18T13:32:51.559Z,40.20
2019-01-18T13:35:19.919Z,40.20
2019-01-18T13:37:48.355Z,40.20
2019-01-18T13:40:19.264Z,40.30
2019-01-18T13:42:47.551Z,40.20
2019-01-18T13:45:15.920Z,40.30
2019-01-18T13:47:45.553Z,40.30
2019-01-18T13:50:18.440Z,40.20
2019-01-18T13:52:46.796Z,40.20
2019-01-18T13:55:18.094Z,40.20
2019-01-18T13:57:46.407Z,40.10
2019-01-18T14:00:15.040Z,40.20
2019-01-18T14:02:48.335Z,40.30
2019-01-18T14:05:13.642Z,40.20
2019-01-18T14:07:42.010Z,40.20
2019-01-18T14:10:30.457Z,40.30
2019-01-18T14:12:58.977Z,40.30
2019-01-18T14:15:27.452Z,40.30
2019-01-18T14:17:55.844Z,40.30
2019-01-18T14:20:26.893Z,40.30
2019-01-18T14:22:55.317Z,40.40
2019-01-18T14:25:23.629Z,40.30
2019-01-18T14:27:51.913Z,40.40
2019-01-18T14:30:25.419Z,40.40
2019-01-18T14:32:55.697Z,40.40
2019-01-18T14:35:24.158Z,40.50
2019-01-18T14:37:52.512Z,40.70
2019-01-18T14:40:20.874Z,40.40
2019-01-18T14:42:51.227Z,40.50
2019-01-18T14:45:28.961Z,40.50
2019-01-18T14:47:57.324Z,40.50
2019-01-18T14:50:25.727Z,40.60
2019-01-18T14:52:54.178Z,40.60
2019-01-18T14:55:22.631Z,40.60
2019-01-18T14:57:50.922Z,40.70
2019-01-18T15:00:22.647Z,40.80
2019-01-18T15:02:51.424Z,40.70
2019-01-18T15:05:19.831Z,40.80
2019-01-18T15:07:48.207Z,40.80
2019-01-18T15:10:19.270Z,40.80
2019-01-18T15:12:49.833Z,40.80
2019-01-18T15:15:18.216Z,40.80
2019-01-18T15:17:48.359Z,40.90
2019-01-18T15:20:22.155Z,40.90
2019-01-18T15:22:50.482Z,41.00
2019-01-18T15:25:18.837Z,40.90
2019-01-18T15:27:47.201Z,41.00
2019-01-18T15:30:21.194Z,41.00
2019-01-18T15:32:49.570Z,41.00
2019-01-18T15:35:20.751Z,41.00
2019-01-18T15:37:49.373Z,41.00
2019-01-18T15:40:20.532Z,41.00
2019-01-18T15:42:48.887Z,40.40
2019-01-18T15:45:17.192Z,40.90
2019-01-18T15:47:45.499Z,40.90
2019-01-18T15:50:19.502Z,40.90
2019-01-18T15:52:47.799Z,40.90
2019-01-18T15:55:16.140Z,40.90
2019-01-18T15:57:44.446Z,40.80
2019-01-18T16:00:25.017Z,40.80
2019-01-18T16:02:53.393Z,40.70
2019-01-18T16:05:21.694Z,40.90
2019-01-18T16:07:50.015Z,40.70
2019-01-18T16:10:18.399Z,40.80
2019-01-18T16:12:46.758Z,40.80
2019-01-18T16:15:24.448Z,40.80
2019-01-18T16:17:52.833Z,40.90
2019-01-18T16:20:23.240Z,40.90
2019-01-18T16:22:51.790Z,40.80
2019-01-18T16:25:23.107Z,40.90
2019-01-18T16:27:51.464Z,40.90
2019-01-18T16:30:21.871Z,41.00
2019-01-18T16:32:50.177Z,40.90
2019-01-18T16:35:19.142Z,40.90
2019-01-18T16:37:49.106Z,40.90
2019-01-18T16:40:23.210Z,40.90
2019-01-18T16:42:55.139Z,40.90
2019-01-18T16:45:23.423Z,40.90
2019-01-18T16:47:51.848Z,40.90
2019-01-18T16:50:20.155Z,40.80
2019-01-18T16:52:48.590Z,40.90
2019-01-18T16:55:17.043Z,40.90
2019-01-18T16:57:45.369Z,40.90
2019-01-18T17:00:17.126Z,41.00
2019-01-18T17:02:45.422Z,41.10
2019-01-18T17:05:13.791Z,41.00
2019-01-18T17:07:42.086Z,41.00
2019-01-18T17:10:13.961Z,41.10
2019-01-18T17:12:42.367Z,41.10
2019-01-18T17:15:13.942Z,41.10
2019-01-18T17:17:42.436Z,41.10
2019-01-18T17:20:14.081Z,41.10
2019-01-18T17:22:42.416Z,41.10
2019-01-18T17:25:10.697Z,41.10
2019-01-18T17:27:39.088Z,41.10
2019-01-18T17:30:10.684Z,41.20
2019-01-18T17:32:38.991Z,41.20
2019-01-18T17:35:16.369Z,41.90
2019-01-18T17:37:47.899Z,41.20
2019-01-18T17:40:19.509Z,41.20
2019-01-18T17:43:06.146Z,41.20
2019-01-18T17:45:46.726Z,41.10
2019-01-18T17:48:30.386Z,41.20
2019-01-18T17:51:01.922Z,41.10
2019-01-18T17:53:54.467Z,41.20
2019-01-18T17:56:37.070Z,41.20
2019-01-18T17:59:26.208Z,41.30
2019-01-18T18:02:09.868Z,41.10
2019-01-18T18:04:53.479Z,41.10
2019-01-18T18:07:44.371Z,41.10
2019-01-18T18:10:30.783Z,41.10
2019-01-18T18:13:05.089Z,41.10
2019-01-18T18:15:54.211Z,41.10
2019-01-18T18:18:49.975Z,41.10
2019-01-18T18:21:21.632Z,41.20
2019-01-18T18:23:55.943Z,41.10
2019-01-18T18:26:27.583Z,41.10
2019-01-18T18:29:13.835Z,41.10
2019-01-18T18:32:00.630Z,41.10
2019-01-18T18:34:50.366Z,41.10
2019-01-18T18:37:36.954Z,41.10
2019-01-18T18:40:34.065Z,41.40
2019-01-18T18:43:20.967Z,41.10
2019-01-18T18:46:04.533Z,41.00
2019-01-18T18:48:42.089Z,41.00
2019-01-18T18:51:25.774Z,41.10
2019-01-18T18:54:00.282Z,41.10
2019-01-18T18:57:01.957Z,41.10
2019-01-18T18:59:48.904Z,41.10
2019-01-18T19:02:32.567Z,41.10
2019-01-18T19:05:10.207Z,41.00
2019-01-18T19:07:50.437Z,41.10
2019-01-18T19:10:36.767Z,41.10
2019-01-18T19:13:25.327Z,41.10
2019-01-18T19:15:59.879Z,41.00
2019-01-18T19:18:46.532Z,41.10
2019-01-18T19:21:26.898Z,41.20
2019-01-18T19:24:07.436Z,41.10
2019-01-18T19:26:45.080Z,41.10
2019-01-18T19:29:28.650Z,41.10
2019-01-18T19:32:11.560Z,41.10
2019-01-18T19:34:43.135Z,41.10
2019-01-18T19:37:35.743Z,41.00
2019-01-18T19:40:19.206Z,41.10
2019-01-18T19:43:09.016Z,41.20
2019-01-18T19:46:00.115Z,41.10
2019-01-18T19:48:34.602Z,41.00
2019-01-18T19:51:08.844Z,41.00
2019-01-18T19:53:43.057Z,41.10
2019-01-18T19:56:23.787Z,41.00
2019-01-18T19:58:55.427Z,41.10
2019-01-18T20:01:32.811Z,41.00
2019-01-18T20:04:22.493Z,41.00
2019-01-18T20:07:08.740Z,41.10
2019-01-18T20:09:58.277Z,41.10
2019-01-18T20:12:46.512Z,41.10
2019-01-18T20:15:26.431Z,41.00
2019-01-18T20:18:04.066Z,40.50
2019-01-18T20:20:58.562Z,41.10
2019-01-18T20:23:46.563Z,41.00
2019-01-18T20:26:39.196Z,41.10
2019-01-18T20:29:25.916Z,41.00
2019-01-18T20:32:03.407Z,41.10
2019-01-18T20:34:37.563Z,41.00
2019-01-18T20:37:24.390Z,41.10
2019-01-18T20:40:17.260Z,41.10
2019-01-18T20:43:09.810Z,41.20
2019-01-18T20:45:43.983Z,41.10
2019-01-18T20:48:21.355Z,41.10
2019-01-18T20:50:58.508Z,41.10
2019-01-18T20:53:52.514Z,41.00
2019-01-18T20:56:42.085Z,41.10
2019-01-18T20:59:22.461Z,41.70
2019-01-18T21:01:54.139Z,41.10
2019-01-18T21:04:34.771Z,41.00
2019-01-18T21:07:12.212Z,41.00
2019-01-18T21:10:08.218Z,41.00
2019-01-18T21:12:48.508Z,41.00
2019-01-18T21:15:34.567Z,41.00
2019-01-18T21:18:09.176Z,41.00
2019-01-18T21:20:53.527Z,41.00
2019-01-18T21:23:41.799Z,41.10
2019-01-18T21:26:16.335Z,41.10
2019-01-18T21:28:47.955Z,41.10
2019-01-18T21:31:43.919Z,41.10
2019-01-18T21:34:18.879Z,41.10
2019-01-18T21:37:10.141Z,41.10
2019-01-18T21:39:56.626Z,41.10
2019-01-18T21:42:53.155Z,41.10
2019-01-18T21:45:47.389Z,41.00
2019-01-18T21:48:33.779Z,41.00
2019-01-18T21:51:11.205Z,41.00
2019-01-18T21:54:14.559Z,41.10
2019-01-18T21:56:55.206Z,41.10
2019-01-18T21:59:41.690Z,41.10
2019-01-18T22:02:15.940Z,41.10
2019-01-18T22:05:05.720Z,41.60
2019-01-18T22:07:49.191Z,40.90
2019-01-18T22:10:29.575Z,40.90
2019-01-18T22:13:10.042Z,41.00
2019-01-18T22:15:47.801Z,41.00
2019-01-18T22:18:31.102Z,41.00
2019-01-18T22:21:11.494Z,41.00
2019-01-18T22:23:46.208Z,41.00
2019-01-18T22:26:17.790Z,41.00
2019-01-18T22:28:54.939Z,41.10
2019-01-18T22:31:29.518Z,41.00
2019-01-18T22:34:03.758Z,41.00
2019-01-18T22:37:03.581Z,41.00
2019-01-18T22:39:47.248Z,41.00
2019-01-18T22:42:18.807Z,41.10
2019-01-18T22:45:05.278Z,41.00
2019-01-18T22:47:51.707Z,41.00
2019-01-18T22:50:23.249Z,41.00
2019-01-18T22:53:09.909Z,41.00
2019-01-18T22:55:47.455Z,41.00
2019-01-18T22:58:36.959Z,41.00
2019-01-18T23:01:17.959Z,40.40
2019-01-18T23:04:01.467Z,41.00
2019-01-18T23:06:51.079Z,41.00
2019-01-18T23:09:48.280Z,41.00
2019-01-18T23:12:25.527Z,41.00
2019-01-18T23:15:00.244Z,41.00
2019-01-18T23:17:37.548Z,41.00
2019-01-18T23:20:28.558Z,41.00
2019-01-18T23:23:15.168Z,41.00
2019-01-18T23:25:52.515Z,41.00
2019-01-18T23:28:38.788Z,41.00
2019-01-18T23:31:10.363Z,41.00
2019-01-18T23:33:56.850Z,41.00
2019-01-18T23:36:44.799Z,41.00
2019-01-18T23:39:31.306Z,41.00
2019-01-18T23:42:05.769Z,41.00
2019-01-18T23:44:52.432Z,41.00
2019-01-18T23:47:24.238Z,41.00
2019-01-18T23:50:10.427Z,41.00
2019-01-18T23:52:44.710Z,41.00
2019-01-18T23:55:28.415Z,41.00
2019-01-18T23:58:05.635Z,41.00
